Detroit, Michigan
Traffic Map
Current Weather Conditions
Detroit, Michigan
Broken Clouds
Broken Clouds
20°
Feels Like: 20°
Wind Chill: 20° Ceiling: 10000
Heat Index: 20° Visibility: 15mi
Dew Point: 19° Wind: 8mph
Humidity: 94% Direction: 170° (S)
Pressure: 29.99in Gusts: 0mph
Raw Report DataCYQG 300400Z 17007KT 15SM SCT070 BKN100 20/19 A2999 RMK AC3AC2 SLP152 DENSITY ALT 1300FT
Traffic Incident Summary
Active as of:
Severity:
Category:
InformationThere was an issue retrieving the traffic information for this location. Please try a different location or try again shortly.
Advertisements
Track Severe Weather on mobile